Airfield :
LOGIN :

Register | Disclaimer

   EN    FR    IT 

 










Legend :    VFR   Marginal VFR   IFR   Intensive IFR   Very Intensive IFR
Visi :
Ceiling :
>= 8 km
>= 3000ft
5 to 8 km
1000 to 3000 ft
1500m to 5 km
500 to 1000 ft
800 to 1500m
200 to 500 ft
< 800m
< 200 ft
Symbols :   Thunderstorms  Fog  Heavy snow  Heavy precipitations  Wind > 20 kt
SIGMETs :     Misc.  Thunderstorms  Icing  Turbulence  Mountain Waves  Volcanic Ashes






- Airport Elevation : 11 ft
- IATA code : SXL


EISG - Sligo

CURRENT METAR :
  • 071030Z 19006KT 100V250 9999 BKN006 OVC055 10/10 Q1005

EXPIRED METARs :
  • 071000Z 18007KT 130V240 9999 SCT008 BKN055 10/10 Q1005
  • 070930Z 18006KT 130V230 9999 BKN009 BKN031 10/10 Q1005
  • 070900Z 18005KT 120V230 9999 BKN09 OVC036 10/10 Q1006
  • 070830Z 18004KT 140V230 9999 FEW008 BKN014 OVC030 09/09 Q1006

TAF TAF EISG
Valid from the 07 at 09:00 until the 07 at 18:00 UTC


070800Z 0709/0718 18007KT 9999 FEW015 BKN025
TEMPO 0709/0718 3000 -RADZ BKN008
BECMG 0713/0715 20016G28KT



MET'MAP, your aeronautical weather chart ! - Copyright ORBIFLY December 2007 - Disclaimer

ORBIFLY MET'MAP TEAM :

Programming & Development : Alexandra Zaïnal
Concept & original design : Baudouin d'Aumeries
Assistance for programming : Marc-Olivier Méhu
Technical & hardware support : Manuel Goepfert

Contact : metmap@orbifly.com




SOURCES & CREDITS :

   NOAA